Time;durP1;ratioP1;P1;durP2;ratioP2;P2;SDS_P1;SDS_P2;PMS_P1;PMS_P2;Temp;Humidity;BMP_temperature;BMP_pressure;BME280_temperature;BME280_humidity;BME280_pressure;Samples;Min_cycle;Max_cycle;Signal;HPM_P1;HPM_P2
2021/10/07 00:00:06;;;;;;;23.10;14.67;;;;;;;10.25;100.00;102314.13;5053817;28;20496;-35
2021/10/07 00:02:31;;;;;;;25.45;15.27;;;;;;;10.35;100.00;102332.72;5053744;28;20021;-35
2021/10/07 00:04:57;;;;;;;18.97;14.53;;;;;;;10.16;100.00;102300.88;5053799;28;20110;-35
2021/10/07 00:07:22;;;;;;;19.40;14.23;;;;;;;10.29;100.00;102338.88;5053911;28;20017;-35
2021/10/07 00:09:47;;;;;;;26.70;14.80;;;;;;;10.14;100.00;102338.91;5053514;28;20119;-35
2021/10/07 00:12:13;;;;;;;25.53;16.20;;;;;;;10.18;100.00;102339.38;5053297;28;20396;-35
2021/10/07 00:14:38;;;;;;;24.10;14.73;;;;;;;10.14;100.00;102328.09;5053579;28;20031;-35
2021/10/07 00:17:04;;;;;;;23.83;14.57;;;;;;;10.21;100.00;102345.25;5053689;28;20060;-35
2021/10/07 00:19:29;;;;;;;19.80;14.82;;;;;;;10.28;100.00;102343.44;5052267;28;20028;-35
2021/10/07 00:21:54;;;;;;;22.77;16.87;;;;;;;10.35;100.00;102358.94;5053186;28;20377;-35
2021/10/07 00:24:20;;;;;;;24.43;16.70;;;;;;;10.42;100.00;102352.53;5053676;28;20338;-35
2021/10/07 00:26:47;;;;;;;27.93;16.50;;;;;;;10.42;100.00;102357.94;5053451;28;20739;-35
2021/10/07 00:31:50;;;;;;;22.85;15.13;;;;;;;10.36;100.00;102353.31;5053261;28;20473;-35
2021/10/07 00:34:38;;;;;;;26.67;15.68;;;;;;;10.29;100.00;102337.00;5052139;28;20017;-35
2021/10/07 00:37:24;;;;;;;25.95;15.35;;;;;;;10.40;100.00;102348.38;5053301;28;20103;-35
2021/10/07 00:39:50;;;;;;;22.25;16.48;;;;;;;10.36;100.00;102366.84;5053465;28;20025;-35
2021/10/07 00:42:16;;;;;;;26.25;16.90;;;;;;;10.31;100.00;102359.31;5053529;28;20021;-35
2021/10/07 00:44:44;;;;;;;31.00;16.27;;;;;;;10.39;100.00;102361.03;5053631;28;20035;-35
2021/10/07 00:47:10;;;;;;;27.27;16.40;;;;;;;10.27;100.00;102360.72;5052832;28;20115;-35
2021/10/07 00:49:39;;;;;;;28.40;17.17;;;;;;;10.29;100.00;102363.22;5052964;28;20104;-35
2021/10/07 00:52:05;;;;;;;25.23;15.95;;;;;;;10.23;100.00;102363.97;5053333;28;20362;-35
2021/10/07 00:54:31;;;;;;;36.38;17.63;;;;;;;10.19;100.00;102376.19;5053197;28;20438;-35
2021/10/07 00:56:57;;;;;;;24.65;15.68;;;;;;;10.10;100.00;102372.75;5051934;28;20027;-35
2021/10/07 00:59:23;;;;;;;29.10;17.63;;;;;;;10.18;100.00;102369.09;5052334;28;20426;-35
2021/10/07 01:01:48;;;;;;;;;;;;;;;10.29;100.00;102371.31;5053187;28;20108;-35
2021/10/07 01:04:14;;;;;;;32.57;17.87;;;;;;;10.20;100.00;102361.63;5051760;28;20309;-35
2021/10/07 01:06:42;;;;;;;37.33;18.90;;;;;;;10.28;100.00;102375.91;5052706;28;20719;-35
2021/10/07 01:09:07;;;;;;;21.05;14.73;;;;;;;10.37;100.00;102371.22;5052772;28;20047;-35
2021/10/07 01:11:33;;;;;;;64.07;18.17;;;;;;;10.37;100.00;102373.91;5051891;28;20029;-35
2021/10/07 01:13:59;;;;;;;60.15;19.17;;;;;;;10.32;100.00;102360.97;5052809;28;20028;-35
2021/10/07 01:16:24;;;;;;;47.97;18.40;;;;;;;10.44;100.00;102374.84;5052853;28;20036;-35
2021/10/07 01:18:50;;;;;;;41.63;17.43;;;;;;;10.44;100.00;102374.84;5052436;28;20021;-35
2021/10/07 01:21:17;;;;;;;43.80;18.40;;;;;;;10.46;100.00;102383.59;5053300;28;20616;-35
2021/10/07 01:23:45;;;;;;;25.88;15.02;;;;;;;10.48;100.00;102389.63;5052715;28;20024;-35
2021/10/07 01:26:13;;;;;;;32.72;16.83;;;;;;;10.52;100.00;102390.91;5051323;28;20067;-35
2021/10/07 01:28:40;;;;;;;37.22;16.92;;;;;;;10.50;100.00;102384.88;5052687;28;20078;-35
2021/10/07 01:31:06;;;;;;;36.40;17.50;;;;;;;10.51;100.00;102389.25;5053168;28;20461;-35
2021/10/07 01:33:32;;;;;;;30.77;14.82;;;;;;;10.52;100.00;102393.63;5052676;28;20048;-35
2021/10/07 01:35:58;;;;;;;;;;;;;;;10.58;100.00;102395.56;5051604;28;20108;-35
2021/10/07 01:38:23;;;;;;;32.05;13.40;;;;;;;10.53;100.00;102406.13;5052592;28;19999;-35
2021/10/07 01:40:48;;;;;;;20.00;13.17;;;;;;;10.51;100.00;102397.38;5052632;28;20033;-35
2021/10/07 01:43:14;;;;;;;31.20;12.93;;;;;;;10.44;100.00;102385.66;5053844;28;20031;-35
2021/10/07 01:45:40;;;;;;;23.20;13.57;;;;;;;10.54;100.00;102401.53;5056430;28;20043;-35
2021/10/07 01:48:05;;;;;;;27.27;13.52;;;;;;;10.50;100.00;102401.09;5056683;28;20397;-35
2021/10/07 01:50:31;;;;;;;42.80;13.63;;;;;;;10.52;100.00;102404.44;5056282;28;20017;-35
2021/10/07 01:52:56;;;;;;;27.00;12.95;;;;;;;10.54;100.00;102404.25;5056344;28;20464;-35
2021/10/07 01:55:22;;;;;;;29.92;12.85;;;;;;;10.44;100.00;102385.66;5056234;28;20434;-35
2021/10/07 01:57:47;;;;;;;23.15;12.88;;;;;;;10.54;100.00;102405.09;5055680;28;20032;-35
2021/10/07 02:00:13;;;;;;;22.52;12.57;;;;;;;10.55;100.00;102409.47;5055878;28;20028;-35
2021/10/07 02:02:39;;;;;;;17.00;13.40;;;;;;;10.55;100.00;102411.34;5056616;28;20504;-35
2021/10/07 02:05:05;;;;;;;25.60;11.95;;;;;;;10.54;100.00;102413.22;5056309;28;20382;-35
2021/10/07 02:07:31;;;;;;;24.48;13.07;;;;;;;10.50;100.00;102402.97;5056308;28;20112;-35
2021/10/07 02:09:56;;;;;;;22.30;13.23;;;;;;;10.48;100.00;102403.16;5056311;28;20477;-35
2021/10/07 02:12:22;;;;;;;26.30;12.30;;;;;;;10.47;100.00;102398.78;5056189;28;20054;-35
2021/10/07 02:14:47;;;;;;;15.90;10.80;;;;;;;10.51;100.00;102413.59;5056116;28;20025;-35
2021/10/07 02:17:12;;;;;;;21.93;9.87;;;;;;;10.56;100.00;102421.97;5055927;28;20480;-35
2021/10/07 02:19:37;;;;;;;36.33;11.87;;;;;;;10.57;100.00;102420.94;5054713;28;20124;-35
2021/10/07 02:22:03;;;;;;;21.10;10.50;;;;;;;10.54;100.00;102424.03;5056013;28;20071;-35
2021/10/07 02:24:29;;;;;;;26.52;11.13;;;;;;;10.50;100.00;102417.34;5055608;28;20025;-35
2021/10/07 02:26:54;;;;;;;32.05;11.60;;;;;;;10.46;100.00;102415.22;5055659;28;20052;-35
2021/10/07 02:29:20;;;;;;;26.77;9.47;;;;;;;10.57;100.00;102437.16;5055731;28;20020;-35
2021/10/07 02:31:45;;;;;;;14.03;10.03;;;;;;;10.58;100.00;102427.19;5056124;28;20067;-35
2021/10/07 02:34:10;;;;;;;33.47;10.38;;;;;;;10.56;100.00;102427.38;5055259;28;20017;-35
2021/10/07 02:36:36;;;;;;;24.43;11.20;;;;;;;10.58;100.00;102441.53;5055460;28;20024;-35
2021/10/07 02:39:02;;;;;;;28.50;11.20;;;;;;;10.45;100.00;102421.66;5055751;28;20028;-35
2021/10/07 02:41:27;;;;;;;;;;;;;;;10.65;100.00;102441.63;5056072;28;20052;-35
2021/10/07 02:43:53;;;;;;;21.20;10.68;;;;;;;10.52;100.00;102428.78;5054184;28;19951;-35
2021/10/07 02:46:18;;;;;;;24.77;11.17;;;;;;;10.60;100.00;102437.81;5056093;28;20064;-35
2021/10/07 02:48:44;;;;;;;23.83;11.90;;;;;;;10.63;100.00;102445.53;5055172;28;20269;-35
2021/10/07 02:51:10;;;;;;;11.95;9.73;;;;;;;10.65;100.00;102441.63;5054775;28;20496;-35
2021/10/07 02:53:36;;;;;;;12.35;10.32;;;;;;;10.61;100.00;102434.09;5054547;28;20029;-35
2021/10/07 02:56:01;;;;;;;12.60;9.63;;;;;;;10.69;100.00;102447.50;5053139;28;20438;-35
2021/10/07 02:58:26;;;;;;;14.70;11.13;;;;;;;10.60;100.00;102432.41;5054903;28;20025;-35
2021/10/07 03:00:51;;;;;;;15.03;10.53;;;;;;;10.67;100.00;102454.94;5055226;28;20029;-35
2021/10/07 03:03:17;;;;;;;15.20;10.43;;;;;;;10.68;100.00;102459.31;5054875;28;20025;-35
2021/10/07 03:05:42;;;;;;;15.27;11.10;;;;;;;10.67;100.00;102457.66;5055108;28;20044;-35
2021/10/07 03:08:08;;;;;;;15.73;10.27;;;;;;;10.53;100.00;102438.56;5055370;28;20036;-35
2021/10/07 03:10:33;;;;;;;14.47;9.37;;;;;;;10.53;100.00;102438.56;5054962;28;20290;-35
2021/10/07 03:12:58;;;;;;;18.07;11.23;;;;;;;10.53;100.00;102441.28;5053586;28;20037;-35
2021/10/07 03:15:24;;;;;;;15.67;10.77;;;;;;;10.56;100.00;102462.53;5054688;28;20021;-35
2021/10/07 03:17:49;;;;;;;12.38;9.82;;;;;;;10.61;100.00;102470.09;5054724;28;20017;-35
2021/10/07 03:20:15;;;;;;;13.13;9.38;;;;;;;10.63;100.00;102467.19;5054660;28;20021;-35
2021/10/07 03:22:41;;;;;;;11.88;8.15;;;;;;;10.63;100.00;102470.72;5054627;28;20081;-35
2021/10/07 03:25:07;;;;;;;12.82;8.77;;;;;;;10.53;100.00;102467.50;5054225;28;20399;-35
2021/10/07 03:27:33;;;;;;;23.30;10.63;;;;;;;10.53;100.00;102467.50;5053742;28;20355;-35
2021/10/07 03:29:58;;;;;;;17.13;12.43;;;;;;;10.52;100.00;102468.53;5054254;28;20170;-35
2021/10/07 03:32:23;;;;;;;15.18;10.70;;;;;;;10.60;100.00;102481.09;5054284;28;20078;-35
2021/10/07 03:34:49;;;;;;;10.20;9.13;;;;;;;10.64;100.00;102487.78;5053940;28;20025;-35
2021/10/07 03:37:14;;;;;;;13.60;11.43;;;;;;;10.65;100.00;102484.06;5054510;28;20100;-35
2021/10/07 03:39:40;;;;;;;19.77;11.18;;;;;;;10.55;100.00;102468.16;5054130;28;20033;-35
2021/10/07 03:42:05;;;;;;;30.43;12.43;;;;;;;10.60;100.00;102497.34;5052807;28;20508;-35
2021/10/07 03:44:31;;;;;;;16.90;9.93;;;;;;;10.48;100.00;102470.75;5052752;28;20025;-35
2021/10/07 03:46:56;;;;;;;10.97;9.63;;;;;;;10.49;100.00;102482.41;5054332;28;20029;-35
2021/10/07 03:49:22;;;;;;;16.65;10.00;;;;;;;10.63;100.00;102499.63;5053575;28;20051;-35
2021/10/07 03:51:47;;;;;;;12.20;10.13;;;;;;;10.61;100.00;102499.84;5054251;28;20021;-35
2021/10/07 03:54:13;;;;;;;23.57;11.10;;;;;;;10.57;100.00;102498.53;5054152;28;20032;-35
2021/10/07 03:56:39;;;;;;;16.52;8.75;;;;;;;10.57;100.00;102498.53;5054126;28;20255;-35
2021/10/07 03:59:05;;;;;;;13.15;9.75;;;;;;;10.49;100.00;102488.69;5052657;28;20135;-35
2021/10/07 04:01:30;;;;;;;13.98;11.38;;;;;;;10.55;100.00;102503.31;5053477;28;20062;-35
2021/10/07 04:03:56;;;;;;;17.30;9.85;;;;;;;10.46;100.00;102489.06;5053639;28;20017;-35
2021/10/07 04:06:21;;;;;;;12.03;7.53;;;;;;;10.57;100.00;102510.19;5053380;28;20021;-35
2021/10/07 04:08:46;;;;;;;20.98;11.15;;;;;;;10.53;100.00;102513.47;5053853;28;20453;-35
2021/10/07 04:11:12;;;;;;;13.33;9.63;;;;;;;10.54;100.00;102517.84;5053829;28;20021;-35
2021/10/07 04:13:37;;;;;;;15.10;9.47;;;;;;;10.35;100.00;102489.56;5053523;28;20059;-35
2021/10/07 04:16:03;;;;;;;17.47;11.43;;;;;;;10.51;100.00;102527.19;5054065;28;20017;-35
2021/10/07 04:18:28;;;;;;;18.65;10.32;;;;;;;10.44;100.00;102520.88;5053458;28;20082;-35
2021/10/07 04:20:53;;;;;;;22.17;11.13;;;;;;;10.53;100.00;102527.84;5053465;28;20472;-35
2021/10/07 04:23:19;;;;;;;17.33;10.70;;;;;;;10.44;100.00;102520.88;5053052;28;20496;-35
2021/10/07 04:25:45;;;;;;;15.13;9.32;;;;;;;10.52;100.00;102534.28;5053385;28;20309;-35
2021/10/07 04:28:10;;;;;;;17.90;10.15;;;;;;;10.50;100.00;102536.34;5053547;28;20507;-35
2021/10/07 04:30:37;;;;;;;24.03;10.47;;;;;;;10.51;100.00;102548.00;5053196;28;20108;-35
2021/10/07 04:33:04;;;;;;;22.35;9.82;;;;;;;10.46;100.00;102529.63;5053519;28;20036;-35
2021/10/07 04:35:29;;;;;;;26.75;10.15;;;;;;;10.55;100.00;102543.91;5052891;28;20036;-35
2021/10/07 04:37:55;;;;;;;32.30;10.38;;;;;;;10.47;100.00;102541.28;5053429;28;20029;-35
2021/10/07 04:40:21;;;;;;;33.30;9.98;;;;;;;10.56;100.00;102554.50;5052869;28;20028;-35
2021/10/07 04:42:46;;;;;;;40.17;10.93;;;;;;;10.56;100.00;102546.41;5052792;28;20025;-35
2021/10/07 04:45:11;;;;;;;37.33;10.80;;;;;;;10.50;100.00;102547.16;5053039;28;20017;-35
2021/10/07 04:47:37;;;;;;;37.17;10.13;;;;;;;10.60;100.00;102552.28;5053254;28;20024;-35
2021/10/07 04:50:04;;;;;;;32.30;10.83;;;;;;;10.57;100.00;102549.94;5052542;28;20025;-35
2021/10/07 04:52:30;;;;;;;21.05;10.55;;;;;;;10.51;100.00;102539.88;5052138;28;20017;-35
2021/10/07 04:54:55;;;;;;;30.37;11.07;;;;;;;10.54;100.00;102543.06;5051886;28;20029;-35
2021/10/07 04:57:20;;;;;;;13.10;8.38;;;;;;;10.66;100.00;102547.97;5053035;28;20082;-38
2021/10/07 04:59:46;;;;;;;59.77;13.00;;;;;;;10.64;100.00;102555.41;5034959;28;20108;-35
2021/10/07 05:02:12;;;;;;;41.13;11.07;;;;;;;10.65;100.00;102547.13;5053091;28;20793;-35
2021/10/07 05:04:37;;;;;;;19.83;8.30;;;;;;;10.70;100.00;102554.69;5052837;28;20025;-35
2021/10/07 05:07:03;;;;;;;70.43;11.57;;;;;;;10.66;100.00;102559.63;5053141;28;20075;-35
2021/10/07 05:09:28;;;;;;;42.33;11.45;;;;;;;10.50;100.00;102538.22;5052061;28;20029;-35
2021/10/07 05:11:54;;;;;;;49.23;11.63;;;;;;;10.63;100.00;102570.81;5053231;28;20100;-35
2021/10/07 05:14:19;;;;;;;40.67;11.37;;;;;;;10.65;100.00;102567.94;5052961;28;20274;-35
2021/10/07 05:16:45;;;;;;;15.40;8.50;;;;;;;10.67;100.00;102569.41;5035147;28;20256;-35
2021/10/07 05:19:10;;;;;;;33.20;10.70;;;;;;;10.66;100.00;102580.44;5054580;28;20263;-35
2021/10/07 05:21:36;;;;;;;27.42;11.27;;;;;;;10.70;100.00;102579.03;5055466;28;20017;-35
2021/10/07 05:24:01;;;;;;;52.97;12.20;;;;;;;10.68;100.00;102575.66;5038594;28;20350;-36
2021/10/07 05:26:27;;;;;;;29.58;11.60;;;;;;;10.69;100.00;102580.06;5057162;28;20298;-35
2021/10/07 05:28:52;;;;;;;44.40;13.05;;;;;;;10.66;100.00;102588.56;5056233;28;20017;-35
2021/10/07 05:31:18;;;;;;;60.40;14.68;;;;;;;10.66;100.00;102588.56;5056890;28;20325;-35
2021/10/07 05:33:43;;;;;;;64.60;14.48;;;;;;;10.55;100.00;102587.19;5054803;28;20033;-35
2021/10/07 05:36:09;;;;;;;53.47;15.00;;;;;;;10.58;100.00;102594.91;5056665;28;20017;-35
2021/10/07 05:38:34;;;;;;;74.57;15.80;;;;;;;10.55;100.00;102598.00;5056282;28;20033;-35
2021/10/07 05:41:00;;;;;;;48.57;14.70;;;;;;;10.60;100.00;102597.44;5056705;28;20052;-35
2021/10/07 05:43:26;;;;;;;59.05;15.98;;;;;;;10.55;100.00;102588.00;5056468;28;20357;-35
2021/10/07 05:45:51;;;;;;;42.25;14.73;;;;;;;10.59;100.00;102591.19;5056632;28;20029;-35
2021/10/07 05:48:17;;;;;;;36.50;13.90;;;;;;;10.62;100.00;102592.66;5056114;28;20028;-35
2021/10/07 05:50:42;;;;;;;19.77;11.55;;;;;;;10.66;100.00;102580.44;5055689;28;20468;-35
2021/10/07 05:53:08;;;;;;;112.87;18.00;;;;;;;10.57;100.00;102577.81;5056560;28;20066;-35
2021/10/07 05:55:33;;;;;;;30.33;14.77;;;;;;;10.72;100.00;102598.63;5056092;28;20356;-35
2021/10/07 05:57:58;;;;;;;36.07;14.90;;;;;;;10.73;100.00;102601.13;5056208;28;20106;-35
2021/10/07 06:00:24;;;;;;;43.37;12.10;;;;;;;10.70;100.00;102595.28;5055930;28;20035;-35
2021/10/07 06:02:49;;;;;;;24.48;10.88;;;;;;;10.80;100.00;102599.34;5055966;28;20025;-35
2021/10/07 06:05:15;;;;;;;29.35;14.20;;;;;;;10.80;100.00;102601.22;5055862;28;20028;-35
2021/10/07 06:07:40;;;;;;;62.85;14.40;;;;;;;10.79;100.00;102599.56;5055852;28;20147;-35
2021/10/07 06:10:07;;;;;;;65.87;14.27;;;;;;;10.63;100.00;102588.91;5055963;28;20029;-35
2021/10/07 06:12:35;;;;;;;;;;;;;;;10.88;100.00;102617.31;5038931;28;20361;-35
2021/10/07 06:15:02;;;;;;;46.42;12.70;;;;;;;10.79;100.00;102621.19;5055790;28;19962;-35
2021/10/07 06:17:27;;;;;;;;;;;;;;;10.88;100.00;102628.16;5055995;28;20029;-35
2021/10/07 06:20:01;;;;;;;68.63;16.25;;;;;;;10.79;100.00;102627.44;5055645;28;19999;-35
2021/10/07 06:22:27;;;;;;;60.92;14.73;;;;;;;10.77;100.00;102629.47;5055517;28;20461;-35
2021/10/07 06:24:53;;;;;;;47.83;13.90;;;;;;;10.81;100.00;102635.38;5055228;28;20027;-35
2021/10/07 06:27:19;;;;;;;50.47;14.55;;;;;;;10.76;100.00;102635.09;5054281;28;20098;-35
2021/10/07 06:29:45;;;;;;;39.08;13.27;;;;;;;10.70;100.00;102628.56;5054822;28;20029;-35
2021/10/07 06:32:10;;;;;;;;;;;;;;;10.81;100.00;102643.47;5055726;28;20080;-35
2021/10/07 06:34:35;;;;;;;40.22;11.98;;;;;;;10.75;100.00;102642.38;5055242;28;20313;-35
2021/10/07 06:37:01;;;;;;;64.00;13.50;;;;;;;10.75;100.00;102646.94;5055863;28;20020;-35
2021/10/07 06:39:26;;;;;;;42.43;11.70;;;;;;;10.76;100.00;102649.47;5055043;28;20032;-35
2021/10/07 06:41:51;;;;;;;50.30;13.07;;;;;;;10.76;100.00;102662.16;5055434;28;20354;-35
2021/10/07 06:44:17;;;;;;;91.10;12.50;;;;;;;10.71;100.00;102659.19;5055151;28;20017;-35
2021/10/07 06:46:42;;;;;;;32.57;11.07;;;;;;;10.73;100.00;102659.81;5054803;28;20013;-35
2021/10/07 06:49:07;;;;;;;99.23;12.60;;;;;;;10.63;100.00;102659.25;5055123;28;20068;-35
2021/10/07 06:51:33;;;;;;;47.87;12.60;;;;;;;10.71;100.00;102667.28;5054767;28;20021;-35
2021/10/07 06:54:00;;;;;;;79.53;12.93;;;;;;;10.65;100.00;102682.41;5053409;28;20409;-35
2021/10/07 06:56:26;;;;;;;76.45;12.32;;;;;;;10.66;100.00;102681.38;5055389;28;20358;-35
2021/10/07 06:58:52;;;;;;;55.83;12.57;;;;;;;10.63;100.00;102680.91;5055196;28;20029;-35
2021/10/07 07:01:19;;;;;;;;;;;;;;;10.72;100.00;102682.50;5056041;28;20032;-35
2021/10/07 07:03:44;;;;;;;113.60;16.77;;;;;;;10.56;100.00;102683.53;5054388;28;19905;-35
2021/10/07 07:06:10;;;;;;;111.67;16.80;;;;;;;10.52;100.00;102684.91;5053758;28;20024;-35
2021/10/07 07:08:36;;;;;;;63.90;14.53;;;;;;;10.54;100.00;102690.97;5054114;28;20028;-35
2021/10/07 07:11:01;;;;;;;88.25;14.80;;;;;;;10.44;100.00;102682.28;5053230;28;20061;-35
2021/10/07 07:13:27;;;;;;;112.47;16.90;;;;;;;10.44;100.00;102693.97;5054102;28;20067;-35
2021/10/07 07:15:52;;;;;;;71.35;14.75;;;;;;;10.44;100.00;102702.09;5055030;28;20017;-35
2021/10/07 07:18:18;;;;;;;65.73;15.77;;;;;;;10.34;100.00;102690.66;5053198;28;20037;-35
2021/10/07 07:20:43;;;;;;;79.33;15.07;;;;;;;10.48;100.00;102700.66;5054231;28;20059;-35
2021/10/07 07:23:09;;;;;;;87.00;16.97;;;;;;;10.54;100.00;102708.06;5054745;28;20420;-35
2021/10/07 07:25:34;;;;;;;168.80;20.92;;;;;;;10.42;100.00;102708.69;5054403;28;20401;-35
2021/10/07 07:28:00;;;;;;;146.35;20.00;;;;;;;10.44;100.00;102710.22;5036675;28;20052;-35
2021/10/07 07:30:25;;;;;;;127.35;20.83;;;;;;;10.41;100.00;102693.50;5036290;28;20025;-35
2021/10/07 07:32:51;;;;;;;138.63;19.53;;;;;;;10.39;100.00;102718.00;5053173;28;20412;-35
2021/10/07 07:35:16;;;;;;;139.90;20.13;;;;;;;10.47;100.00;102714.38;5054480;28;20021;-35
2021/10/07 07:37:41;;;;;;;166.10;22.43;;;;;;;10.43;100.00;102719.31;5053232;28;20082;-35
2021/10/07 07:40:07;;;;;;;78.90;18.87;;;;;;;10.46;100.00;102715.41;5053952;28;20186;-35
2021/10/07 07:42:33;;;;;;;;;;;;;;;10.60;100.00;102727.28;5053094;28;20112;-35
2021/10/07 07:44:58;;;;;;;52.07;18.13;;;;;;;10.64;100.00;102731.28;5052445;28;20001;-35
2021/10/07 07:47:23;;;;;;;41.93;16.67;;;;;;;10.63;100.00;102716.91;5054235;28;20325;-35
2021/10/07 07:49:49;;;;;;;61.43;18.83;;;;;;;10.71;100.00;102716.00;5054147;28;20021;-35
2021/10/07 07:52:14;;;;;;;51.10;18.73;;;;;;;10.86;100.00;102743.06;5053961;28;20098;-35
2021/10/07 07:54:39;;;;;;;40.97;18.30;;;;;;;10.88;100.00;102749.09;5053613;28;20108;-35
2021/10/07 07:57:05;;;;;;;54.13;17.43;;;;;;;10.90;100.00;102739.78;5053612;28;20742;-35
2021/10/07 07:59:30;;;;;;;43.37;17.73;;;;;;;10.94;100.00;102738.41;5053720;28;20025;-35
2021/10/07 08:01:57;;;;;;;64.37;19.37;;;;;;;10.90;100.00;102734.38;5053895;28;20255;-35
2021/10/07 08:04:22;;;;;;;48.33;19.50;;;;;;;10.90;100.00;102749.78;5052801;28;20021;-35
2021/10/07 08:06:48;;;;;;;77.20;19.85;;;;;;;10.72;100.00;102739.31;5053623;28;20457;-35
2021/10/07 08:09:13;;;;;;;54.90;18.20;;;;;;;10.82;100.00;102756.94;5053584;28;20107;-35
2021/10/07 08:11:42;;;;;;;72.90;17.98;;;;;;;10.74;100.00;102769.75;5053450;28;20376;-35
2021/10/07 08:14:08;;;;;;;118.88;20.08;;;;;;;10.50;100.00;102746.50;5053736;28;20051;-35
2021/10/07 08:16:33;;;;;;;81.47;18.98;;;;;;;10.57;100.00;102753.66;5053347;28;20055;-35
2021/10/07 08:18:59;;;;;;;61.28;16.80;;;;;;;10.62;100.00;102750.41;5053312;28;20025;-35
2021/10/07 08:21:25;;;;;;;60.38;18.42;;;;;;;10.68;100.00;102754.25;5053803;28;20041;-35
2021/10/07 08:23:53;;;;;;;57.80;17.42;;;;;;;10.68;100.00;102768.59;5053274;28;20036;-35
2021/10/07 08:26:18;;;;;;;58.72;16.30;;;;;;;10.73;100.00;102757.22;5053196;28;20053;-35
2021/10/07 08:28:43;;;;;;;30.03;16.00;;;;;;;10.86;100.00;102762.84;5052084;28;20415;-35
2021/10/07 08:31:10;;;;;;;30.20;15.40;;;;;;;10.95;100.00;102759.03;5053183;28;20465;-35
2021/10/07 08:33:35;;;;;;;38.58;14.75;;;;;;;10.96;100.00;102762.56;5053178;28;20044;-35
2021/10/07 08:36:00;;;;;;;24.60;14.80;;;;;;;11.01;100.00;102749.31;5053177;28;20457;-35
2021/10/07 08:38:29;;;;;;;41.40;14.47;;;;;;;11.09;100.00;102769.00;5053420;28;20430;-35
2021/10/07 08:40:55;;;;;;;28.40;13.93;;;;;;;11.00;100.00;102740.34;5051913;28;20028;-35
2021/10/07 08:43:23;;;;;;;30.20;13.87;;;;;;;11.16;100.00;102768.25;5053035;28;20087;-35
2021/10/07 08:45:49;;;;;;;22.25;13.55;;;;;;;11.24;100.00;102770.88;5052989;28;20056;-35
2021/10/07 08:48:14;;;;;;;28.23;14.95;;;;;;;11.29;100.00;102776.56;5053559;28;20124;-35
2021/10/07 08:50:40;;;;;;;31.58;15.13;;;;;;;11.33;100.00;102775.16;5053037;28;20417;-35
2021/10/07 08:53:08;;;;;;;24.63;15.17;;;;;;;11.26;100.00;102774.22;5053019;28;20028;-35
2021/10/07 08:55:33;;;;;;;22.50;15.95;;;;;;;11.32;100.00;102768.03;5052828;28;20370;-35
2021/10/07 08:57:58;;;;;;;33.03;16.83;;;;;;;11.21;100.00;102779.34;5052698;28;20035;-35
2021/10/07 09:00:24;;;;;;;24.63;15.83;;;;;;;11.30;100.00;102778.22;5052893;28;20025;-35
2021/10/07 09:02:49;;;;;;;32.63;15.93;;;;;;;11.20;100.00;102764.13;5052842;28;20043;-35
2021/10/07 09:05:19;;;;;;;27.90;16.77;;;;;;;11.35;100.00;102783.91;5052759;28;20027;-35
2021/10/07 09:08:02;;;;;;;24.48;14.20;;;;;;;11.38;100.00;102783.56;5053120;28;20334;-35
2021/10/07 09:10:57;;;;;;;23.02;13.60;;;;;;;11.31;100.00;102785.31;5052679;28;20033;-35
2021/10/07 09:13:27;;;;;;;21.92;14.50;;;;;;;11.29;100.00;102768.44;5052202;28;20356;-35
2021/10/07 09:15:58;;;;;;;20.00;13.95;;;;;;;11.39;100.00;102778.97;5052475;28;20426;-35
2021/10/07 09:18:26;;;;;;;21.25;14.50;;;;;;;11.44;100.00;102781.94;5052428;28;20096;-35
2021/10/07 09:20:53;;;;;;;23.90;15.88;;;;;;;11.52;100.00;102779.97;5052607;28;20052;-35
2021/10/07 09:23:22;;;;;;;20.05;14.82;;;;;;;11.51;100.00;102769.31;5052920;28;20480;-35
2021/10/07 09:26:01;;;;;;;25.38;16.17;;;;;;;11.45;100.00;102765.50;5052409;28;20020;-35
2021/10/07 09:28:48;;;;;;;22.92;15.88;;;;;;;11.57;100.00;102784.81;5052904;28;20415;-35
2021/10/07 09:31:14;;;;;;;22.20;16.88;;;;;;;11.49;100.00;102793.06;5052447;28;20021;-35
2021/10/07 09:33:44;;;;;;;20.60;16.05;;;;;;;11.53;100.00;102787.06;5052017;28;20065;-35
2021/10/07 09:36:13;;;;;;;23.02;15.57;;;;;;;11.58;100.00;102784.63;5052712;28;20029;-35
2021/10/07 09:38:39;;;;;;;21.88;15.27;;;;;;;11.67;100.00;102789.94;5053083;28;20029;-35
2021/10/07 09:41:09;;;;;;;20.35;15.35;;;;;;;11.60;100.00;102766.28;5050805;28;20025;-35
2021/10/07 09:44:08;;;;;;;20.25;15.18;;;;;;;11.69;100.00;102788.72;5052628;28;20021;-35
2021/10/07 09:46:48;;;;;;;21.08;15.38;;;;;;;11.72;100.00;102791.03;5051406;28;20041;-35
2021/10/07 09:49:34;;;;;;;23.95;15.65;;;;;;;11.80;100.00;102793.63;5052847;28;20071;-35
2021/10/07 09:52:01;;;;;;;19.63;14.27;;;;;;;11.79;100.00;102775.69;5052424;28;20021;-35
2021/10/07 09:54:33;;;;;;;20.00;14.80;;;;;;;11.83;100.00;102789.72;5051017;28;20028;-35
2021/10/07 09:57:03;;;;;;;18.33;13.95;;;;;;;11.85;100.00;102795.78;5051223;28;20116;-35
2021/10/07 09:59:30;;;;;;;21.20;15.60;;;;;;;11.86;100.00;102802.91;5052369;28;20040;-35
2021/10/07 10:01:56;;;;;;;17.52;14.13;;;;;;;11.82;100.00;102796.19;5051144;28;20041;-35
2021/10/07 10:04:27;;;;;;;23.10;16.33;;;;;;;11.77;100.00;102798.59;5053858;28;20071;-35
2021/10/07 10:06:53;;;;;;;24.35;17.50;;;;;;;11.82;100.00;102801.63;5056628;28;20087;-35
2021/10/07 10:09:26;;;;;;;26.33;17.48;;;;;;;11.89;100.00;102807.94;5056083;28;20025;-35
2021/10/07 10:11:53;;;;;;;23.67;17.98;;;;;;;11.96;100.00;102808.84;5055810;28;20021;-35
2021/10/07 10:14:19;;;;;;;21.05;15.85;;;;;;;11.99;100.00;102803.03;5055046;28;20037;-35
2021/10/07 10:16:45;;;;;;;22.15;16.27;;;;;;;11.95;100.00;102792.75;5056443;28;20020;-35
2021/10/07 10:19:11;;;;;;;19.42;15.52;;;;;;;12.03;100.00;102798.91;5055800;28;20028;-35
2021/10/07 10:21:39;;;;;;;24.30;18.10;;;;;;;12.18;100.00;102803.44;5056075;28;20072;-35
2021/10/07 10:24:07;;;;;;;22.45;16.55;;;;;;;12.25;100.00;102817.88;5054484;28;20036;-35
2021/10/07 10:26:36;;;;;;;21.63;16.13;;;;;;;12.25;100.00;102818.75;5056052;28;20438;-35
2021/10/07 10:29:02;;;;;;;21.85;16.35;;;;;;;12.28;100.00;102817.50;5055426;28;20037;-35
2021/10/07 10:31:29;;;;;;;22.13;15.15;;;;;;;12.29;100.00;102808.31;5055646;28;20051;-35
2021/10/07 10:34:13;;;;;;;26.90;19.73;;;;;;;12.16;100.00;102816.34;5055092;28;20437;-35
2021/10/07 10:36:47;;;;;;;24.13;17.77;;;;;;;12.18;100.00;102811.56;5055812;28;20035;-35
2021/10/07 10:39:18;;;;;;;26.45;19.30;;;;;;;12.12;100.00;102824.03;5053986;28;20036;-35
2021/10/07 10:41:57;;;;;;;29.73;19.63;;;;;;;12.20;100.00;102818.50;5055578;28;20078;-35
2021/10/07 10:44:28;;;;;;;24.48;17.75;;;;;;;12.25;100.00;102817.88;5055367;28;20017;-35
2021/10/07 10:47:05;;;;;;;25.60;18.88;;;;;;;12.33;100.00;102831.31;5055409;28;20021;-35
2021/10/07 10:49:51;;;;;;;24.42;18.08;;;;;;;12.36;100.00;102830.94;5055170;28;20021;-35
2021/10/07 10:52:19;;;;;;;25.17;18.33;;;;;;;12.41;100.00;102839.34;5055559;28;20354;-35
2021/10/07 10:54:47;;;;;;;24.40;16.63;;;;;;;12.35;100.00;102823.84;5055301;28;20029;-35
2021/10/07 10:57:37;;;;;;;23.23;17.95;;;;;;;12.45;100.00;102837.09;5054299;28;20045;-35
2021/10/07 11:00:13;;;;;;;26.42;19.35;;;;;;;12.30;100.00;102846.13;5053851;28;20418;-35
2021/10/07 11:02:46;;;;;;;32.00;21.35;;;;;;;12.21;100.00;102847.28;5054238;28;20365;-35
2021/10/07 11:05:16;;;;;;;29.00;19.13;;;;;;;12.25;100.00;102837.75;5055198;28;20401;-35